Sioux City, IA

9:25 PM CDT on September 02, 2014 (GMT -0500)
Sioux Gateway | Change Station
CLOSE
Current Station
Airport
Location: Sioux City,
Elevation: 1102 ft
Nearby Weather Stations

Elev 1102 ft 42.39 °N, 96.38 °W | Updated 33 minutes ago

Clear
Clear
67 °F
Feels Like 67 °F
N
6
Wind Variable Wind from SSE

Today
High -- | Low -- °F
--% Chance of Precip.
Yesterday
High -- | Low -- °F
Precip. -- in
6:51 AM 7:57 PM
First Quarter, 57% visible
Pressure 29.91 in
Visibility 10.0 miles
Clouds Clear
Dew Point 62 °F
Humidity 84%
Rainfall 0.06 in
Snow Depth Not available.
UV 0 out of 12
Pollen 9.20 out of 12
Air Quality Not available.
Flu Activity Not available.
METAR KSUX 030152Z 15005KT 10SM CLR 19/17 A2991 RMK AO2 SLP126 T01940167

More Conditions Fewer Conditions

Pressure 29.91 in
Visibility 10.0 miles
Clouds Clear
Dew Point 62 °F
Humidity 84%
Rainfall 0.06 in
Snow Depth Not available.
UV 0 out of 12
Pollen 9.20 out of 12
Air Quality Not available.
Flu Activity Not available.
METAR KSUX 030152Z 15005KT 10SM CLR 19/17 A2991 RMK AO2 SLP126 T01940167

More Conditions Fewer Conditions

10-Day Weather Forecast

Almanac

Astronomy

Sep. 02, 2014 Rise Set
Actual Time 6:51 AM CDT 7:57 PM CDT
Civil Twilight 6:22 AM CDT 8:26 PM CDT
Nautical Twilight 5:48 AM CDT 9:01 PM CDT
Astronomical Twilight 5:11 AM CDT 9:37 PM CDT
Moon 2:45 PM CDT (9/2) No Moon Set
Length of Visible Light 14h 03m
Length of Day
13h 06m
Tomorrow will be 2m 46s shorter.
First Quarter, 57% of the Moon is Illuminated
Today
First Quarter
Sep 8
Full
Sep 15
Last Quarter
Sep 24
New
Oct 1
First Quarter

Today's Extremes

State Highs State Lows

Community

WunderPhotos

Upload Photos

1,749,841 photos uploaded!

Nearby

Snow Depth

Station Depth Elevation
No new snow has been reported.

Earthquake Activity

City Distance Mag. Time & Date
No recent earthquake activity has been reported nearby.
Minimum magnitude displayed is 2.5.

Coastal Water Temperatures

Place Temperature
No Stations Reporting

Nearby Weather Stations